Yellowstone National Park, WY

8:37 AM MST on February 13, 2016 (GMT -0700)
Yellowstone | | Change Station
CLOSE
Current Station
Airport
Location: Yellowstone,
Elevation: 7835 ft
Nearby Weather Stations

Elev 7835 ft 44.54 °N, 110.42 °W | Updated 41 minutes ago

Partly Cloudy
Partly Cloudy
30 °F
Feels Like 25 °F
N
5
Wind Variable Wind from Variable
Gusts 22 mph

Today
High -- | Low -- °F
--% Chance of Precip.
Yesterday
High -- | Low -- °F
Precip. -- in
Pressure 30.11 in
Visibility -9999.0 miles
Clouds
Windchill 25 °F
Dew Point 16 °F
Humidity 56%
Rainfall 0.00 in
Snow Depth Not available.
7:25 AM 5:47 PM
Waxing Crescent, 31% visible
METAR KP60 131456Z AUTO VRB04KT M01/M09 A3008 RMK AO1 SLP195 T10111089 58015 $
Pressure 30.11 in
Visibility -9999.0 miles
Clouds
Windchill 25 °F
Dew Point 16 °F
Humidity 56%
Rainfall 0.00 in
Snow Depth Not available.
7:25 AM 5:47 PM
Waxing Crescent, 31% visible
METAR KP60 131456Z AUTO VRB04KT M01/M09 A3008 RMK AO1 SLP195 T10111089 58015 $

10-Day Weather Forecast

Almanac

Astronomy

Feb. 13, 2016 Rise Set
Actual Time
Civil Twilight
Nautical Twilight
Astronomical Twilight
Moon
Length of Visible Light
Length of Day
Tomorrow will be .
, % of the Moon is Illuminated

Today's Extremes

State Highs State Lows

Community

WunderPhotos

Upload Photos

1,892,585 photos uploaded!

WunderBlog® & News

Nearby

Air Quality

  Air Quality AQ Index Pollutant
Not available.

Snow Depth

Station Depth Elevation

Earthquake Activity

City Distance Mag. Time & Date
Minimum magnitude displayed is 2.5.

Coastal Water Temperatures

Place Temperature

Stations

Nearby Weather Stations

Station Location Temp. Windchill Dew Point Humidity Wind Precip. Elev Updated Type
                   

Watches & Warnings

There are currently no watches in effect.